»·PEaware :: SWA145 KSNA-KSJC

SWA145 :: KSNA-KSJC

FLIGHT INFORMATION

Flight Status: Arrived
Operator:
Southwest Airlines
More flights by this operator :: More flights under this callsign
Pilot: James D. (13710)
Aircraft: BOEING 737-300
(B733)
More flights by this aircraft type
Origin: KSNA John Wayne-Orange Co
United States
Destination: KSJC Mineta San Jose Intl
United States
More flights between these airports :: More routes between these airports
Route: HHERO2 IKAYE TESEA SCTRR TROXX SILCN4
File this flight plan on PilotEdge
Remarks:
Altitude:
(Current/Filed)
30,000ft
Speed:
(Current/Filed)
455kts
Departed: 12-Apr-18 10:17 AM
Arrived: 12-Apr-18 11:22 AM
Distance/Time
Traveled:
297nm/1:05
Distance/Time
To Go:
Arrived

Flight Plot

Page will automatically refresh every two minutes.

Flight plan parsing failed; only flown route is shown


Map Options




Map Legend


Flown Route
Filed Route
Departure Airport
Arrival Airport
Navaid (VOR, NDB)
Fix

Horizontal Profiles

Position Reports

Time Latitude Longitude Heading Altitude Ground
Speed
12-Apr-18 09:32 33.677184 -117.863718 116 63ft 0kts
12-Apr-18 09:33 33.677184 -117.863718 116 63ft 0kts
12-Apr-18 09:34 33.677184 -117.863718 116 63ft 0kts
12-Apr-18 09:35 33.677184 -117.863718 116 63ft 0kts
12-Apr-18 09:36 33.677184 -117.863718 116 63ft 0kts
12-Apr-18 09:37 33.677184 -117.863718 116 63ft 0kts
12-Apr-18 09:38 33.677184 -117.863718 116 63ft 0kts
12-Apr-18 09:39 33.677184 -117.863718 116 63ft 0kts
12-Apr-18 09:40 33.677184 -117.863718 116 63ft 0kts
12-Apr-18 09:41 33.677184 -117.863718 116 63ft 0kts
12-Apr-18 09:42 33.677184 -117.863718 116 63ft 0kts
12-Apr-18 09:43 33.677184 -117.863718 116 63ft 0kts
12-Apr-18 09:44 33.677184 -117.863718 116 63ft 0kts
12-Apr-18 09:45 33.677184 -117.863718 116 63ft 0kts
12-Apr-18 09:46 33.677184 -117.863718 116 63ft 0kts
12-Apr-18 09:47 33.677184 -117.863718 116 63ft 0kts
12-Apr-18 09:48 33.677184 -117.863718 116 63ft 0kts
12-Apr-18 09:49 33.677184 -117.863718 116 63ft 0kts
12-Apr-18 09:50 33.677184 -117.863718 116 63ft 0kts
12-Apr-18 09:51 33.677184 -117.863718 116 63ft 0kts
12-Apr-18 09:52 33.677184 -117.863718 116 63ft 0kts
12-Apr-18 09:53 33.677184 -117.863718 116 63ft 0kts
12-Apr-18 09:54 33.677184 -117.863718 116 63ft 0kts
12-Apr-18 09:55 33.677184 -117.863718 116 63ft 0kts
12-Apr-18 09:56 33.677184 -117.863718 116 63ft 0kts
12-Apr-18 09:57 33.677184 -117.863718 116 63ft 0kts
12-Apr-18 09:58 33.677184 -117.863718 116 63ft 0kts
12-Apr-18 09:59 33.677184 -117.863718 116 63ft 0kts
12-Apr-18 10:00 33.677184 -117.863718 116 63ft 0kts
12-Apr-18 10:01 33.677184 -117.863718 117 63ft 0kts
12-Apr-18 10:02 33.677184 -117.863719 117 63ft 0kts
12-Apr-18 10:03 33.677184 -117.863719 117 63ft 0kts
12-Apr-18 10:04 33.677184 -117.863719 117 63ft 0kts
12-Apr-18 10:05 33.677329 -117.864233 80 63ft 2kts
12-Apr-18 10:06 33.677097 -117.864586 25 63ft 1kts
12-Apr-18 10:07 33.677085 -117.864593 25 63ft 0kts
12-Apr-18 10:08 33.677085 -117.864593 25 63ft 0kts
12-Apr-18 10:09 33.677085 -117.864593 25 63ft 0kts
12-Apr-18 10:10 33.677085 -117.864593 25 63ft 0kts
12-Apr-18 10:11 33.677086 -117.864592 25 63ft 0kts
12-Apr-18 10:12 33.677967 -117.864051 27 63ft 13kts
12-Apr-18 10:13 33.681167 -117.864257 298 63ft 3kts
12-Apr-18 10:14 33.681168 -117.864261 298 63ft 0kts
12-Apr-18 10:15 33.681429 -117.865115 241 63ft 10kts
12-Apr-18 10:16 33.669327 -117.872908 208 65ft 136kts
12-Apr-18 10:17 33.626677 -117.891605 186 1101ft 212kts
12-Apr-18 10:18 33.562166 -117.910494 223 3297ft 265kts
12-Apr-18 10:19 33.507910 -117.971272 227 6878ft 261kts
12-Apr-18 10:20 33.461238 -118.041358 245 9293ft 282kts
12-Apr-18 10:21 33.420186 -118.125837 249 11809ft 317kts
12-Apr-18 10:22 33.424901 -118.225012 285 13682ft 304kts
12-Apr-18 10:23 33.455597 -118.336950 298 16213ft 307kts
12-Apr-18 10:24 33.488833 -118.412965 297 18793ft 314kts
12-Apr-18 10:25 33.536709 -118.500728 319 21481ft 329kts
12-Apr-18 10:26 33.612908 -118.564267 320 23106ft 337kts
12-Apr-18 10:27 33.690409 -118.629090 319 24758ft 343kts
12-Apr-18 10:28 33.768016 -118.694314 318 26891ft 353kts
12-Apr-18 10:29 33.849549 -118.762649 318 28838ft 363kts
12-Apr-18 10:30 33.931555 -118.831551 317 30131ft 354kts
12-Apr-18 10:31 34.010939 -118.898408 317 30126ft 348kts
12-Apr-18 10:32 34.090117 -118.965241 318 30136ft 346kts
12-Apr-18 10:33 34.164876 -119.035492 310 30137ft 339kts
12-Apr-18 10:34 34.231343 -119.115160 310 30133ft 340kts
12-Apr-18 10:35 34.297963 -119.194652 310 30127ft 340kts
12-Apr-18 10:36 34.365254 -119.275088 310 30121ft 341kts
12-Apr-18 10:37 34.432256 -119.355364 310 30135ft 340kts
12-Apr-18 10:38 34.499353 -119.435961 310 30146ft 340kts
12-Apr-18 10:39 34.566499 -119.516802 310 30164ft 340kts
12-Apr-18 10:40 34.633415 -119.597558 310 30167ft 340kts
12-Apr-18 10:41 34.699947 -119.678152 310 30161ft 340kts
12-Apr-18 10:42 34.766715 -119.759247 310 30176ft 340kts
12-Apr-18 10:43 34.833390 -119.840201 310 30203ft 339kts
12-Apr-18 10:44 34.899842 -119.921223 310 30213ft 339kts
12-Apr-18 10:45 34.966176 -120.002290 311 30214ft 338kts
12-Apr-18 10:46 35.032481 -120.083491 312 30232ft 337kts
12-Apr-18 10:47 35.098385 -120.164394 312 30252ft 337kts
12-Apr-18 10:48 35.164345 -120.245250 312 30265ft 337kts
12-Apr-18 10:49 35.237952 -120.316464 319 30272ft 340kts
12-Apr-18 10:50 35.313354 -120.385452 318 30277ft 340kts
12-Apr-18 10:51 35.388960 -120.454763 318 30273ft 339kts
12-Apr-18 10:52 35.464502 -120.524179 319 30278ft 340kts
12-Apr-18 10:53 35.540100 -120.592260 323 30279ft 342kts
12-Apr-18 10:54 35.618329 -120.653279 322 30276ft 341kts
12-Apr-18 10:55 35.697352 -120.715276 322 30277ft 340kts
12-Apr-18 10:56 35.776872 -120.778256 322 30276ft 340kts
12-Apr-18 10:57 35.856663 -120.841237 321 30276ft 341kts
12-Apr-18 10:58 35.936018 -120.903985 322 30276ft 340kts
12-Apr-18 10:59 36.015176 -120.967680 318 30276ft 339kts
12-Apr-18 11:00 36.089058 -121.038159 318 30282ft 334kts
12-Apr-18 11:01 36.161110 -121.106482 319 27665ft 333kts
12-Apr-18 11:02 36.235499 -121.177371 319 25493ft 344kts
12-Apr-18 11:03 36.308646 -121.247220 319 23276ft 320kts
12-Apr-18 11:04 36.376798 -121.312769 320 21073ft 307kts
12-Apr-18 11:05 36.443530 -121.377200 320 19000ft 303kts
12-Apr-18 11:06 36.511544 -121.436059 336 17140ft 301kts
12-Apr-18 11:07 36.590836 -121.469490 338 15252ft 301kts
12-Apr-18 11:08 36.667696 -121.501912 338 13396ft 297kts
12-Apr-18 11:09 36.745350 -121.534807 339 11553ft 294kts
12-Apr-18 11:10 36.821724 -121.567258 339 10033ft 290kts
12-Apr-18 11:11 36.896022 -121.598821 339 8963ft 264kts
12-Apr-18 11:12 36.963334 -121.627460 340 8073ft 251kts
12-Apr-18 11:13 37.026741 -121.654408 340 6950ft 240kts
12-Apr-18 11:14 37.090293 -121.681665 340 5754ft 245kts
12-Apr-18 11:15 37.154103 -121.708832 339 4342ft 241kts
12-Apr-18 11:16 37.205625 -121.756596 317 3967ft 229kts
12-Apr-18 11:17 37.253012 -121.809828 318 2761ft 221kts
12-Apr-18 11:18 37.292661 -121.853123 318 1723ft 157kts
12-Apr-18 11:19 37.320156 -121.883267 318 1024ft 117kts
12-Apr-18 11:20 37.345363 -121.910894 318 360ft 125kts
12-Apr-18 11:21 37.365484 -121.932951 317 50ft 34kts
12-Apr-18 11:22 37.367586 -121.933687 46 50ft 1kts
12-Apr-18 11:23 37.368916 -121.930851 135 50ft 17kts
12-Apr-18 11:24 37.368840 -121.929792 47 50ft 0kts
12-Apr-18 11:25 37.368840 -121.929792 47 50ft 0kts

Navigation Log

Ident Type
Flight plan parsing failed, navigation log unavailable